Time;durP1;ratioP1;P1;durP2;ratioP2;P2;SDS_P1;SDS_P2;PMS_P1;PMS_P2;Temp;Humidity;BMP_temperature;BMP_pressure;BME280_temperature;BME280_humidity;BME280_pressure;Samples;Min_cycle;Max_cycle;Signal;HPM_P1;HPM_P2
2021/09/18 00:00:59;;;;;;;16.50;13.20;;;16.00;94.50;;;;;;4954943;28;20165;-75
2021/09/18 00:03:24;;;;;;;18.93;12.67;;;15.90;94.60;;;;;;4954827;28;20586;-75
2021/09/18 00:05:50;;;;;;;15.63;12.97;;;15.90;94.70;;;;;;4936105;29;20256;-75
2021/09/18 00:08:16;;;;;;;16.50;13.33;;;15.90;94.80;;;;;;4936351;29;20174;-75
2021/09/18 00:10:41;;;;;;;14.60;12.23;;;15.90;94.90;;;;;;4939415;29;20200;-76
2021/09/18 00:13:07;;;;;;;17.73;13.17;;;15.90;94.90;;;;;;4953052;29;20203;-76
2021/09/18 00:15:34;;;;;;;15.03;12.60;;;15.80;95.00;;;;;;4953786;28;20231;-76
2021/09/18 00:18:00;;;;;;;18.20;14.43;;;15.90;95.00;;;;;;4955084;28;20161;-76
2021/09/18 00:20:25;;;;;;;16.37;12.53;;;15.90;94.90;;;;;;4953941;28;20527;-76
2021/09/18 00:22:51;;;;;;;14.70;11.73;;;15.90;94.80;;;;;;4953541;29;20515;-75
2021/09/18 00:25:17;;;;;;;16.13;13.13;;;15.80;94.80;;;;;;4954950;28;20177;-75
2021/09/18 00:27:42;;;;;;;18.50;12.80;;;15.80;94.90;;;;;;4954857;28;20644;-76
2021/09/18 00:30:08;;;;;;;17.93;13.17;;;15.80;95.00;;;;;;4934166;29;20200;-76
2021/09/18 00:32:34;;;;;;;15.00;11.63;;;15.80;95.00;;;;;;4934350;29;20587;-76
2021/09/18 00:35:00;;;;;;;12.80;11.00;;;15.80;95.00;;;;;;4935673;29;20507;-76
2021/09/18 00:37:25;;;;;;;13.70;11.40;;;15.80;94.90;;;;;;4936305;29;20282;-76
2021/09/18 00:39:51;;;;;;;16.20;13.20;;;15.70;94.90;;;;;;4933622;29;20215;-76
2021/09/18 00:42:17;;;;;;;14.53;11.37;;;15.70;95.10;;;;;;4935387;29;20608;-75
2021/09/18 00:44:43;;;;;;;14.37;12.20;;;15.70;95.20;;;;;;4917865;29;20170;-75
2021/09/18 00:47:08;;;;;;;16.30;12.93;;;15.60;95.20;;;;;;4933746;29;20186;-76
2021/09/18 00:49:34;;;;;;;18.17;13.70;;;15.60;95.20;;;;;;4935127;29;20795;-76
2021/09/18 00:52:00;;;;;;;14.90;12.37;;;15.60;95.20;;;;;;4934861;29;20173;-76
2021/09/18 00:54:26;;;;;;;14.80;11.60;;;15.60;95.30;;;;;;4935137;29;20206;-76
2021/09/18 00:56:54;;;;;;;15.73;10.80;;;15.60;95.20;;;;;;4942311;29;20491;-76
2021/09/18 00:59:23;;;;;;;13.70;11.87;;;15.50;95.20;;;;;;4954093;28;20192;-78
2021/09/18 01:01:49;;;;;;;15.30;12.37;;;15.50;95.20;;;;;;4953660;28;20428;-75
2021/09/18 01:04:14;;;;;;;15.20;12.63;;;15.50;95.30;;;;;;4950066;28;20437;-75
2021/09/18 01:06:40;;;;;;;15.67;11.77;;;15.40;95.40;;;;;;4935503;29;20228;-77
2021/09/18 01:09:06;;;;;;;15.30;13.03;;;15.30;95.40;;;;;;4934381;29;20576;-77
2021/09/18 01:11:32;;;;;;;16.73;12.17;;;15.30;95.50;;;;;;4935297;29;20184;-76
2021/09/18 01:13:58;;;;;;;18.93;13.07;;;15.30;95.60;;;;;;4940753;29;20464;-77
2021/09/18 01:16:24;;;;;;;16.47;13.70;;;15.30;95.80;;;;;;4935483;29;20170;-76
2021/09/18 01:18:50;;;;;;;17.60;13.30;;;15.30;96.00;;;;;;4941202;29;20568;-73
2021/09/18 01:21:17;;;;;;;18.90;14.90;;;15.30;96.00;;;;;;4937143;29;20412;-74
2021/09/18 01:23:43;;;;;;;17.37;13.37;;;15.30;95.90;;;;;;4937971;29;20247;-73
2021/09/18 01:26:09;;;;;;;17.10;14.30;;;15.30;95.90;;;;;;4938130;29;20416;-74
2021/09/18 01:28:39;;;;;;;17.97;13.23;;;15.30;95.90;;;;;;4937636;29;20183;-73
2021/09/18 01:31:05;;;;;;;21.30;14.10;;;15.30;95.80;;;;;;4937570;29;20488;-73
2021/09/18 01:33:31;;;;;;;16.37;13.97;;;15.20;95.80;;;;;;4937923;29;20471;-73
2021/09/18 01:35:56;;;;;;;19.83;13.37;;;15.20;95.90;;;;;;4952613;29;20425;-74
2021/09/18 01:38:22;;;;;;;17.50;12.73;;;15.20;96.00;;;;;;4938044;29;20525;-74
2021/09/18 01:40:48;;;;;;;20.23;15.60;;;15.20;96.10;;;;;;4937534;29;20775;-72
2021/09/18 01:43:15;;;;;;;16.70;13.27;;;15.20;96.00;;;;;;4938020;29;20638;-73
2021/09/18 01:45:41;;;;;;;19.50;16.03;;;15.20;95.90;;;;;;4937974;29;20168;-73
2021/09/18 01:48:10;;;;;;;22.53;14.73;;;15.20;95.80;;;;;;4937794;29;20832;-73
2021/09/18 01:53:12;;;;;;;18.13;13.93;;;15.20;95.80;;;;;;4937748;29;20485;-73
2021/09/18 01:55:38;;;;;;;15.57;13.43;;;15.10;95.70;;;;;;4936743;29;20760;-73
2021/09/18 01:58:05;;;;;;;21.20;14.80;;;15.10;95.90;;;;;;4937323;29;20407;-73
2021/09/18 02:00:32;;;;;;;16.17;13.90;;;15.10;96.00;;;;;;4937198;29;20700;-74
2021/09/18 02:02:59;;;;;;;20.80;13.63;;;15.10;96.00;;;;;;4937040;29;20423;-72
2021/09/18 02:05:27;;;;;;;18.60;13.13;;;15.10;95.90;;;;;;4937039;29;20831;-72
2021/09/18 02:07:54;;;;;;;17.73;13.17;;;15.10;95.90;;;;;;4951786;29;20183;-72
2021/09/18 02:10:23;;;;;;;18.57;13.80;;;15.10;95.80;;;;;;4936153;29;20444;-72
2021/09/18 02:12:49;;;;;;;18.23;12.90;;;15.10;95.90;;;;;;4934909;29;20420;-73
2021/09/18 02:15:16;;;;;;;16.40;12.93;;;15.00;96.00;;;;;;4937447;29;20537;-73
2021/09/18 02:17:43;;;;;;;14.70;11.93;;;15.00;96.10;;;;;;4937779;29;20170;-73
2021/09/18 02:20:15;;;;;;;16.50;13.00;;;15.00;96.10;;;;;;4937104;29;20974;-73
2021/09/18 02:22:42;;;;;;;19.73;15.00;;;14.90;96.10;;;;;;4937766;29;20421;-73
2021/09/18 02:25:08;;;;;;;17.13;12.90;;;14.90;96.20;;;;;;4938067;29;20413;-73
2021/09/18 02:27:34;;;;;;;16.50;12.00;;;14.90;96.10;;;;;;4937541;29;20440;-73
2021/09/18 02:30:00;;;;;;;14.70;11.50;;;14.90;96.10;;;;;;4932834;29;20455;-73
2021/09/18 02:32:26;;;;;;;15.50;12.90;;;14.90;96.10;;;;;;4937342;29;20296;-73
2021/09/18 02:34:51;;;;;;;19.27;13.13;;;14.90;96.30;;;;;;4938115;29;20604;-73
2021/09/18 02:37:17;;;;;;;16.27;12.73;;;14.80;96.30;;;;;;4920348;29;20174;-73
2021/09/18 02:39:43;;;;;;;13.50;11.97;;;14.90;96.30;;;;;;4934541;29;20186;-74
2021/09/18 02:42:09;;;;;;;15.53;12.73;;;14.80;96.20;;;;;;4936285;29;20186;-73
2021/09/18 02:44:34;;;;;;;15.80;11.87;;;14.80;96.20;;;;;;4935332;29;20660;-74
2021/09/18 02:47:00;;;;;;;17.37;13.40;;;14.80;96.20;;;;;;4936734;29;20234;-73
2021/09/18 02:49:25;;;;;;;15.77;14.00;;;14.80;96.30;;;;;;4943297;23;20236;-87
2021/09/18 02:51:51;;;;;;;17.30;12.83;;;14.80;96.40;;;;;;4939561;29;20197;-87
2021/09/18 02:54:17;;;;;;;15.37;12.00;;;14.80;96.30;;;;;;4940057;29;20209;-88
2021/09/18 02:56:44;;;;;;;17.00;14.30;;;14.80;96.30;;;;;;4939240;29;20393;-88
2021/09/18 02:59:10;;;;;;;18.73;12.70;;;14.70;96.30;;;;;;4939184;29;20192;-87
2021/09/18 03:01:36;;;;;;;19.13;13.73;;;14.70;96.30;;;;;;4939051;29;20421;-87
2021/09/18 03:04:02;;;;;;;18.40;14.27;;;14.70;96.40;;;;;;4983719;23;20554;-76
2021/09/18 03:06:28;;;;;;;19.63;14.33;;;14.70;96.50;;;;;;4972374;28;20464;-74
2021/09/18 03:08:55;;;;;;;17.40;14.37;;;14.70;96.60;;;;;;4974839;28;20763;-75
2021/09/18 03:11:22;;;;;;;21.37;14.57;;;14.70;96.50;;;;;;4975026;28;20192;-75
2021/09/18 03:13:47;;;;;;;17.73;13.63;;;14.70;96.80;;;;;;4974778;28;20531;-74
2021/09/18 03:16:13;;;;;;;19.40;14.20;;;14.70;96.40;;;;;;4974996;28;20872;-75
2021/09/18 03:18:39;;;;;;;15.37;12.10;;;14.70;96.40;;;;;;4975200;28;20174;-76
2021/09/18 03:21:05;;;;;;;18.50;14.23;;;14.80;96.40;;;;;;4974543;28;20187;-75
2021/09/18 03:23:30;;;;;;;18.27;14.27;;;14.70;96.20;;;;;;4974692;28;20177;-75
2021/09/18 03:25:56;;;;;;;16.50;14.80;;;14.80;96.20;;;;;;4975129;28;20177;-75
2021/09/18 03:28:22;;;;;;;17.47;13.13;;;14.70;96.10;;;;;;4974841;28;20202;-74
2021/09/18 03:30:47;;;;;;;20.43;15.60;;;14.80;96.00;;;;;;4974435;28;20204;-75
2021/09/18 03:33:13;;;;;;;15.93;14.20;;;14.70;95.90;;;;;;4974505;28;20167;-76
2021/09/18 03:35:39;;;;;;;26.83;17.20;;;14.60;95.90;;;;;;4975033;28;20181;-75
2021/09/18 03:38:04;;;;;;;22.70;15.33;;;14.60;96.10;;;;;;4973735;28;20175;-75
2021/09/18 03:40:30;;;;;;;19.17;15.93;;;14.60;96.10;;;;;;4957022;28;20594;-74
2021/09/18 03:42:56;;;;;;;19.17;14.37;;;14.50;96.10;;;;;;4975532;28;20189;-75
2021/09/18 03:45:21;;;;;;;19.63;14.50;;;14.50;96.10;;;;;;4977453;28;20167;-75
2021/09/18 03:47:47;;;;;;;17.50;14.60;;;14.50;96.10;;;;;;4975211;28;20232;-75
2021/09/18 03:50:13;;;;;;;22.77;17.87;;;14.50;96.20;;;;;;4975595;28;20188;-74
2021/09/18 03:52:38;;;;;;;18.80;14.77;;;14.40;96.30;;;;;;4975322;28;20170;-75
2021/09/18 03:55:05;;;;;;;20.80;15.43;;;14.40;96.40;;;;;;4975175;28;20192;-75
2021/09/18 03:57:31;;;;;;;25.93;15.17;;;14.40;96.40;;;;;;4975193;28;20180;-76
2021/09/18 03:59:56;;;;;;;25.33;16.87;;;14.40;96.30;;;;;;4974884;28;20433;-74
2021/09/18 04:02:22;;;;;;;19.13;15.13;;;14.30;96.40;;;;;;4973709;28;20207;-75
2021/09/18 04:04:48;;;;;;;19.63;15.00;;;14.30;96.40;;;;;;4973332;28;20223;-76
2021/09/18 04:07:13;;;;;;;19.50;15.63;;;14.30;96.40;;;;;;4973783;28;20669;-76
2021/09/18 04:09:39;;;;;;;17.00;14.63;;;14.30;96.50;;;;;;4975132;28;20192;-75
2021/09/18 04:12:05;;;;;;;17.20;14.47;;;14.30;96.60;;;;;;4975838;28;20166;-74
2021/09/18 04:14:31;;;;;;;20.90;15.57;;;14.30;96.50;;;;;;4974670;28;20973;-74
2021/09/18 04:16:57;;;;;;;21.33;14.80;;;14.20;96.50;;;;;;4975856;28;20162;-75
2021/09/18 04:19:25;;;;;;;24.40;16.10;;;14.20;96.50;;;;;;4984369;28;20783;-78
2021/09/18 04:22:03;;;;;;;20.23;14.53;;;14.20;96.60;;;;;;4992618;28;20203;-76
2021/09/18 04:24:31;;;;;;;21.70;15.77;;;14.20;96.60;;;;;;4991083;28;20422;-75
2021/09/18 04:26:57;;;;;;;21.00;15.03;;;14.10;96.60;;;;;;4987740;28;20711;-73
2021/09/18 04:29:23;;;;;;;22.63;17.70;;;14.10;96.60;;;;;;4989621;28;20479;-77
2021/09/18 04:31:56;;;;;;;27.27;17.53;;;14.10;96.80;;;;;;4984137;28;20345;-77
2021/09/18 04:34:22;;;;;;;22.90;16.70;;;14.10;96.90;;;;;;4992335;28;20238;-76
2021/09/18 04:36:54;;;;;;;33.37;22.57;;;14.20;96.90;;;;;;4985814;28;20498;-75
2021/09/18 04:39:20;;;;;;;28.07;17.70;;;14.20;96.80;;;;;;4983226;28;20207;-76
2021/09/18 04:41:45;;;;;;;18.70;15.93;;;14.20;96.70;;;;;;4979257;28;20420;-75
2021/09/18 04:44:11;;;;;;;22.40;17.10;;;14.20;96.60;;;;;;4979126;28;20539;-75
2021/09/18 04:46:37;;;;;;;25.50;21.07;;;14.20;96.60;;;;;;4979205;28;20201;-74
2021/09/18 04:49:03;;;;;;;25.13;18.77;;;14.20;96.70;;;;;;4978634;28;20198;-76
2021/09/18 04:51:28;;;;;;;27.67;19.47;;;14.20;96.60;;;;;;4980836;28;20444;-76
2021/09/18 04:53:57;;;;;;;21.53;16.70;;;14.20;96.60;;;;;;4975350;28;20308;-73
2021/09/18 04:56:22;;;;;;;23.77;17.70;;;14.20;96.70;;;;;;4974125;28;20838;-75
2021/09/18 04:58:48;;;;;;;26.40;18.03;;;14.20;96.70;;;;;;4979270;28;20173;-76
2021/09/18 05:01:14;;;;;;;24.27;19.07;;;14.10;96.60;;;;;;4975567;28;20165;-75
2021/09/18 05:03:40;;;;;;;25.80;18.10;;;14.10;96.40;;;;;;4969750;28;20189;-76
2021/09/18 05:06:05;;;;;;;23.47;17.80;;;14.10;96.50;;;;;;4988086;28;20426;-75
2021/09/18 05:08:31;;;;;;;24.73;17.80;;;14.10;96.50;;;;;;4977590;28;20173;-75
2021/09/18 05:10:59;;;;;;;26.40;19.20;;;14.10;96.60;;;;;;4974946;28;20197;-74
2021/09/18 05:13:25;;;;;;;22.20;17.00;;;14.10;96.60;;;;;;4985127;28;20219;-78
2021/09/18 05:15:50;;;;;;;25.87;17.80;;;14.10;96.70;;;;;;4983341;28;20426;-74
2021/09/18 05:18:20;;;;;;;20.67;15.40;;;14.00;96.70;;;;;;4975552;28;20188;-73
2021/09/18 05:20:47;;;;;;;21.63;16.50;;;14.00;96.80;;;;;;4974506;28;20440;-76
2021/09/18 05:23:12;;;;;;;22.43;16.80;;;14.10;96.80;;;;;;4974029;28;20435;-76
2021/09/18 05:25:41;;;;;;;18.50;14.37;;;14.10;96.70;;;;;;4972492;28;20949;-76
2021/09/18 05:28:07;;;;;;;22.37;15.70;;;14.10;96.60;;;;;;4974126;28;20571;-76
2021/09/18 05:30:32;;;;;;;22.60;15.27;;;14.10;96.50;;;;;;4971671;28;20459;-73
2021/09/18 05:32:58;;;;;;;21.40;15.70;;;14.10;96.60;;;;;;4973637;28;20170;-75
2021/09/18 05:35:24;;;;;;;16.03;14.33;;;14.10;96.60;;;;;;4972037;28;20402;-76
2021/09/18 05:37:49;;;;;;;19.60;14.83;;;14.10;96.70;;;;;;4982533;28;20203;-75
2021/09/18 05:40:15;;;;;;;18.80;15.97;;;14.10;96.70;;;;;;4974855;28;20231;-78
2021/09/18 05:42:41;;;;;;;22.87;15.13;;;14.10;96.60;;;;;;4973755;28;20159;-77
2021/09/18 05:45:08;;;;;;;21.90;15.77;;;14.20;96.60;;;;;;4974283;28;20188;-74
2021/09/18 05:47:34;;;;;;;19.87;15.50;;;14.20;96.60;;;;;;4971809;28;20934;-74
2021/09/18 05:49:59;;;;;;;26.80;16.40;;;14.20;96.60;;;;;;4972574;28;20442;-74
2021/09/18 05:52:25;;;;;;;23.30;15.60;;;14.30;96.70;;;;;;4972781;28;20553;-74
2021/09/18 05:54:52;;;;;;;19.97;15.80;;;14.40;96.60;;;;;;4974614;28;20206;-74
2021/09/18 05:57:17;;;;;;;27.20;14.80;;;14.40;96.30;;;;;;4981843;28;20219;-74
2021/09/18 05:59:43;;;;;;;21.03;14.43;;;14.50;96.00;;;;;;4980761;28;20428;-76
2021/09/18 06:02:09;;;;;;;24.10;14.03;;;14.40;95.80;;;;;;4977079;28;20179;-74
2021/09/18 06:04:34;;;;;;;17.97;14.07;;;14.40;95.80;;;;;;4972931;28;20684;-74
2021/09/18 06:07:00;;;;;;;18.83;15.17;;;14.40;95.90;;;;;;4973075;28;20207;-74
2021/09/18 06:09:25;;;;;;;20.27;14.00;;;14.50;96.00;;;;;;4972117;28;20343;-73
2021/09/18 06:11:51;;;;;;;15.83;12.47;;;14.60;96.00;;;;;;4972132;28;20213;-74
2021/09/18 06:14:17;;;;;;;21.70;14.27;;;14.60;95.70;;;;;;4972742;28;20204;-73
2021/09/18 06:16:43;;;;;;;19.23;15.33;;;14.70;95.50;;;;;;4972210;28;20242;-73
2021/09/18 06:19:11;;;;;;;14.87;12.83;;;14.70;95.30;;;;;;4972914;28;20660;-75
2021/09/18 06:21:37;;;;;;;17.97;11.20;;;14.80;95.20;;;;;;4972226;28;20662;-76
2021/09/18 06:24:04;;;;;;;14.47;11.73;;;14.90;94.80;;;;;;4972971;28;20911;-74
2021/09/18 06:26:30;;;;;;;19.07;12.60;;;15.00;94.80;;;;;;4972252;28;20412;-75
2021/09/18 06:28:56;;;;;;;16.03;11.80;;;15.00;94.70;;;;;;4972542;28;20712;-76
2021/09/18 06:31:22;;;;;;;19.60;13.43;;;15.10;94.20;;;;;;4970496;28;20412;-74
2021/09/18 06:33:47;;;;;;;14.40;12.20;;;15.20;94.20;;;;;;4972177;28;20506;-75
2021/09/18 06:36:13;;;;;;;17.70;13.37;;;15.30;93.90;;;;;;4971201;28;20259;-76
2021/09/18 06:38:38;;;;;;;18.10;12.00;;;15.30;93.60;;;;;;4975396;28;20191;-75
2021/09/18 06:41:05;;;;;;;15.90;12.53;;;15.40;93.20;;;;;;4974583;28;20190;-73
2021/09/18 06:43:33;;;;;;;15.10;12.47;;;15.50;93.10;;;;;;4981138;28;20180;-77
2021/09/18 06:45:58;;;;;;;16.60;12.67;;;15.50;93.00;;;;;;4984570;28;20570;-77
2021/09/18 06:48:24;;;;;;;17.50;13.70;;;15.70;93.00;;;;;;4977457;28;20452;-74
2021/09/18 06:50:50;;;;;;;15.03;11.50;;;15.70;92.10;;;;;;4976603;28;20196;-75
2021/09/18 06:53:16;;;;;;;17.93;13.83;;;15.80;92.30;;;;;;4978055;28;20239;-75
2021/09/18 06:55:41;;;;;;;19.63;12.40;;;16.00;91.90;;;;;;4975536;28;20435;-75
2021/09/18 06:58:07;;;;;;;18.60;13.20;;;16.00;91.80;;;;;;4970354;28;20173;-75
2021/09/18 07:00:33;;;;;;;14.90;11.90;;;16.10;91.50;;;;;;4956894;28;20196;-75
2021/09/18 07:02:58;;;;;;;16.63;13.40;;;16.20;91.00;;;;;;4956347;28;20263;-73
2021/09/18 07:05:24;;;;;;;14.47;11.67;;;16.30;90.80;;;;;;4959453;28;20204;-72
2021/09/18 07:07:50;;;;;;;17.60;13.57;;;16.40;90.20;;;;;;4975964;28;20544;-75
2021/09/18 07:10:22;;;;;;;18.03;12.90;;;16.40;90.30;;;;;;4974742;28;20200;-79
2021/09/18 07:12:50;;;;;;;15.80;12.30;;;16.50;90.00;;;;;;4981124;28;20168;-77
2021/09/18 07:15:25;;;;;;;16.83;13.43;;;16.60;90.10;;;;;;4973252;28;20463;-80
2021/09/18 07:17:51;;;;;;;17.40;13.60;;;16.70;89.20;;;;;;4984296;28;20431;-77
2021/09/18 07:20:17;;;;;;;16.33;12.90;;;16.80;89.70;;;;;;4990848;28;20407;-74
2021/09/18 07:22:46;;;;;;;16.70;12.73;;;16.90;89.20;;;;;;4987565;28;20680;-76
2021/09/18 07:25:12;;;;;;;17.43;11.97;;;17.00;88.60;;;;;;4990919;28;20490;-75
2021/09/18 07:27:38;;;;;;;17.40;13.37;;;17.20;87.70;;;;;;4992816;28;20192;-74
2021/09/18 07:30:14;;;;;;;18.33;13.40;;;17.30;87.40;;;;;;4993606;28;20196;-77
2021/09/18 07:32:42;;;;;;;15.70;13.17;;;17.70;86.70;;;;;;4982675;28;20424;-76
2021/09/18 07:35:09;;;;;;;14.80;13.23;;;18.10;85.50;;;;;;4962254;28;20447;-75
2021/09/18 07:37:35;;;;;;;19.17;13.10;;;18.60;82.80;;;;;;4978476;28;20458;-75
2021/09/18 07:40:02;;;;;;;16.07;12.07;;;19.20;81.40;;;;;;4969697;28;20846;-77
2021/09/18 07:42:30;;;;;;;17.50;13.90;;;19.70;77.90;;;;;;4965469;28;20560;-76
2021/09/18 07:44:56;;;;;;;17.03;13.10;;;19.90;76.00;;;;;;4978500;28;20434;-75
2021/09/18 07:47:22;;;;;;;15.80;13.50;;;20.00;75.60;;;;;;4987596;28;20484;-77
2021/09/18 07:49:48;;;;;;;13.93;12.53;;;20.10;75.40;;;;;;4978524;28;20233;-79
2021/09/18 07:52:13;;;;;;;15.53;12.50;;;20.20;74.20;;;;;;4974505;28;20181;-76
2021/09/18 07:54:41;;;;;;;14.17;12.67;;;20.40;72.30;;;;;;4981964;28;20208;-77
2021/09/18 07:57:07;;;;;;;15.93;13.20;;;20.70;72.80;;;;;;4963166;28;20187;-75
2021/09/18 07:59:33;;;;;;;21.53;17.60;;;21.80;72.20;;;;;;4986186;28;20524;-76
2021/09/18 08:01:59;;;;;;;16.33;11.63;;;23.00;66.50;;;;;;4986117;28;20420;-74
2021/09/18 08:04:28;;;;;;;16.23;11.67;;;24.30;61.70;;;;;;4987954;28;20180;-77
2021/09/18 08:06:56;;;;;;;13.67;12.00;;;25.30;57.00;;;;;;4993196;28;20148;-75
2021/09/18 08:09:22;;;;;;;18.80;17.00;;;26.20;54.70;;;;;;4986501;28;20431;-75
2021/09/18 08:11:49;;;;;;;17.00;12.20;;;26.80;53.40;;;;;;4985910;28;20175;-73
2021/09/18 08:14:15;;;;;;;20.60;16.60;;;27.50;51.30;;;;;;4964833;28;20203;-76
2021/09/18 08:16:50;;;;;;;25.43;21.37;;;27.80;50.30;;;;;;4962896;28;20477;-77
2021/09/18 08:19:17;;;;;;;13.37;12.07;;;28.10;49.40;;;;;;4985494;28;20789;-75
2021/09/18 08:21:46;;;;;;;15.47;11.93;;;28.60;48.50;;;;;;4985170;28;20492;-77
2021/09/18 08:24:12;;;;;;;14.87;11.63;;;29.00;47.30;;;;;;4991044;28;20781;-80
2021/09/18 08:26:38;;;;;;;14.83;12.40;;;29.40;45.70;;;;;;4986511;28;20448;-78
2021/09/18 08:29:03;;;;;;;17.10;15.40;;;29.70;45.90;;;;;;4959817;28;20235;-76
2021/09/18 08:31:29;;;;;;;13.97;11.20;;;30.10;44.10;;;;;;4965336;28;20468;-75
2021/09/18 08:33:55;;;;;;;22.57;20.30;;;30.40;44.40;;;;;;4961219;28;20200;-74
2021/09/18 08:36:26;;;;;;;18.20;13.83;;;30.20;43.80;;;;;;4962417;28;20173;-75
2021/09/18 08:38:52;;;;;;;15.90;14.10;;;30.40;43.10;;;;;;4971044;29;20740;-75
2021/09/18 08:41:21;;;;;;;14.77;13.40;;;30.40;42.00;;;;;;4960873;29;20409;-76
2021/09/18 08:43:47;;;;;;;22.03;13.13;;;30.30;42.80;;;;;;4964903;28;20209;-76
2021/09/18 08:46:16;;;;;;;14.87;12.77;;;30.30;42.40;;;;;;4964489;29;20405;-76
2021/09/18 08:48:44;;;;;;;13.57;12.17;;;30.10;42.50;;;;;;4964496;28;20234;-74
2021/09/18 08:51:10;;;;;;;13.30;12.00;;;29.80;43.30;;;;;;4973413;28;20471;-76
2021/09/18 08:53:38;;;;;;;16.00;13.80;;;29.80;43.70;;;;;;4958627;28;20897;-76
2021/09/18 08:56:04;;;;;;;13.60;12.27;;;30.10;43.10;;;;;;4985498;28;20240;-75
2021/09/18 08:58:30;;;;;;;15.60;13.80;;;30.40;42.80;;;;;;4977142;28;20439;-76
2021/09/18 09:00:57;;;;;;;15.80;12.83;;;30.80;42.10;;;;;;4978022;28;20465;-75
2021/09/18 09:03:33;;;;;;;22.63;20.33;;;31.20;41.30;;;;;;4975574;28;20279;-75
2021/09/18 09:06:12;;;;;;;18.23;16.10;;;31.50;41.00;;;;;;4970343;28;20435;-76
2021/09/18 09:08:40;;;;;;;19.17;15.97;;;32.00;39.30;;;;;;4979124;28;20518;-74
2021/09/18 09:11:20;;;;;;;20.90;15.77;;;32.00;38.90;;;;;;4970260;28;20496;-75
2021/09/18 09:13:58;;;;;;;17.20;15.60;;;31.90;39.60;;;;;;4958207;29;20460;-77
2021/09/18 09:16:24;;;;;;;19.70;17.67;;;32.10;38.90;;;;;;4960686;28;20413;-75
2021/09/18 09:18:50;;;;;;;23.57;21.10;;;32.60;38.30;;;;;;4962401;28;20511;-77
2021/09/18 09:21:25;;;;;;;22.60;20.27;;;32.70;37.60;;;;;;4961374;28;20427;-76
2021/09/18 09:24:12;;;;;;;22.23;20.03;;;32.90;37.30;;;;;;4959392;28;20208;-76
2021/09/18 09:27:03;;;;;;;23.77;21.43;;;33.00;37.30;;;;;;4980311;28;20435;-76
2021/09/18 09:29:45;;;;;;;29.47;26.50;;;33.50;36.80;;;;;;4986825;28;20435;-75
2021/09/18 09:32:31;;;;;;;26.60;24.10;;;33.70;35.70;;;;;;4979471;28;20509;-76
2021/09/18 09:35:16;;;;;;;29.17;26.10;;;33.60;35.80;;;;;;4975664;28;20446;-76
2021/09/18 09:37:56;;;;;;;32.97;29.53;;;33.70;36.00;;;;;;4982452;28;20427;-76
2021/09/18 09:40:40;;;;;;;28.80;25.97;;;33.80;35.00;;;;;;4979378;28;20467;-76
2021/09/18 09:43:09;;;;;;;30.73;27.70;;;34.00;35.50;;;;;;4972880;28;20454;-75
2021/09/18 09:45:36;;;;;;;40.03;36.03;;;34.50;35.60;;;;;;4974291;28;20403;-76
2021/09/18 09:48:10;;;;;;;56.20;50.77;;;34.70;34.70;;;;;;4973969;28;20408;-77
2021/09/18 09:50:38;;;;;;;32.20;29.10;;;34.50;34.50;;;;;;4963332;28;20447;-76
2021/09/18 09:53:05;;;;;;;30.07;27.37;;;34.60;34.50;;;;;;4971546;28;20420;-75
2021/09/18 09:55:35;;;;;;;36.30;32.60;;;34.40;34.40;;;;;;4971834;28;20836;-75
2021/09/18 09:58:07;;;;;;;32.30;29.10;;;34.20;35.60;;;;;;4967429;28;20486;-75
2021/09/18 10:00:51;;;;;;;35.70;28.40;;;33.80;35.20;;;;;;4973840;28;20521;-76
2021/09/18 10:03:20;;;;;;;30.70;27.40;;;33.30;36.10;;;;;;4975896;28;20668;-77
2021/09/18 10:05:46;;;;;;;29.33;26.43;;;33.40;36.20;;;;;;4969169;28;20419;-76
2021/09/18 10:08:13;;;;;;;31.63;28.60;;;34.20;35.90;;;;;;4975611;28;20421;-78
2021/09/18 10:10:40;;;;;;;28.23;25.13;;;34.40;34.50;;;;;;4971259;28;20231;-76
2021/09/18 10:13:06;;;;;;;32.60;29.17;;;34.80;34.50;;;;;;4937386;29;20420;-75
2021/09/18 10:15:33;;;;;;;28.83;25.87;;;35.30;33.50;;;;;;4959727;28;20458;-76
2021/09/18 10:18:01;;;;;;;28.43;25.63;;;35.30;33.30;;;;;;4972900;28;20498;-78
2021/09/18 10:23:15;;;;;;;28.97;26.20;;;35.40;32.90;;;;;;4978552;28;20447;-78
2021/09/18 10:25:45;;;;;;;28.07;25.60;;;35.40;33.10;;;;;;4979968;28;20423;-78
2021/09/18 10:28:16;;;;;;;60.10;34.57;;;35.00;32.90;;;;;;4975494;28;20473;-77
2021/09/18 10:30:47;;;;;;;30.90;25.30;;;34.60;33.80;;;;;;4971949;28;20471;-75
2021/09/18 10:33:29;;;;;;;28.67;25.70;;;34.20;34.50;;;;;;4973062;28;20531;-75
2021/09/18 10:36:16;;;;;;;26.30;22.00;;;33.70;34.70;;;;;;4975727;28;20450;-80
2021/09/18 10:38:51;;;;;;;26.37;23.67;;;32.30;36.00;;;;;;4970623;28;20435;-75
2021/09/18 10:41:24;;;;;;;26.17;22.30;;;31.10;37.60;;;;;;4974446;28;20462;-75
2021/09/18 10:44:00;;;;;;;30.57;27.40;;;29.90;39.80;;;;;;4971275;28;20453;-74
2021/09/18 10:46:48;;;;;;;26.70;23.90;;;29.00;41.90;;;;;;4972957;28;20826;-75
2021/09/18 10:49:33;;;;;;;20.90;16.60;;;28.30;43.70;;;;;;4972932;28;20439;-77
2021/09/18 10:52:17;;;;;;;21.10;18.77;;;27.60;43.60;;;;;;4962991;28;20615;-74
2021/09/18 10:55:10;;;;;;;19.80;15.30;;;26.90;45.10;;;;;;4966120;28;21013;-75
2021/09/18 10:57:39;;;;;;;91.47;76.17;;;26.50;45.70;;;;;;4959170;28;20424;-77
2021/09/18 11:00:17;;;;;;;12.53;10.67;;;26.20;46.60;;;;;;4960326;28;20432;-76
2021/09/18 11:02:55;;;;;;;15.47;11.73;;;26.00;45.80;;;;;;4965822;28;20919;-75
2021/09/18 11:05:21;;;;;;;8.00;7.20;;;25.80;45.40;;;;;;4958937;28;20416;-78
2021/09/18 11:07:54;;;;;;;13.40;10.80;;;25.50;45.20;;;;;;4979353;28;20469;-78
2021/09/18 11:10:22;;;;;;;9.97;7.80;;;25.00;45.20;;;;;;4965205;28;20177;-77
2021/09/18 11:13:07;;;;;;;13.60;8.83;;;24.80;46.40;;;;;;4965044;28;20435;-76
2021/09/18 11:15:42;;;;;;;9.63;8.13;;;24.70;46.50;;;;;;4975749;28;20550;-77
2021/09/18 11:18:16;;;;;;;10.70;8.30;;;24.60;46.60;;;;;;4958471;28;20419;-75
2021/09/18 11:20:42;;;;;;;10.50;8.90;;;24.50;46.70;;;;;;4958033;28;21087;-76
2021/09/18 11:23:09;;;;;;;15.93;9.50;;;24.50;47.10;;;;;;4955361;28;20420;-76
2021/09/18 11:25:37;;;;;;;8.87;7.03;;;24.40;47.80;;;;;;4964436;28;20423;-76
2021/09/18 11:28:08;;;;;;;10.47;7.63;;;24.40;47.30;;;;;;4969161;28;20455;-76
2021/09/18 11:30:45;;;;;;;9.60;8.40;;;24.40;47.60;;;;;;4976909;28;20523;-75
2021/09/18 11:33:13;;;;;;;10.40;7.50;;;24.40;47.70;;;;;;4965188;28;20436;-76
2021/09/18 11:35:40;;;;;;;11.57;9.37;;;24.60;47.90;;;;;;4960449;28;20467;-77
2021/09/18 11:38:07;;;;;;;13.50;9.50;;;24.60;47.70;;;;;;4974958;28;20460;-76
2021/09/18 11:40:36;;;;;;;10.60;9.23;;;24.60;47.90;;;;;;4978362;28;20494;-74
2021/09/18 11:43:02;;;;;;;15.67;12.60;;;24.60;48.00;;;;;;4977499;28;20518;-77
2021/09/18 11:45:29;;;;;;;11.63;10.10;;;24.40;48.20;;;;;;4977845;28;20445;-76
2021/09/18 11:47:57;;;;;;;17.20;11.43;;;24.30;48.50;;;;;;4976497;28;20432;-77
2021/09/18 11:50:30;;;;;;;14.40;10.70;;;24.20;48.60;;;;;;4974995;28;20435;-78
2021/09/18 11:52:58;;;;;;;11.40;9.70;;;24.00;49.00;;;;;;4980836;28;20412;-75
2021/09/18 11:55:46;;;;;;;13.23;10.20;;;24.00;49.70;;;;;;4981573;28;20448;-77
2021/09/18 11:58:15;;;;;;;17.60;11.50;;;24.00;49.80;;;;;;4985669;28;20407;-77
2021/09/18 12:01:10;;;;;;;11.10;10.00;;;24.00;49.60;;;;;;4978354;28;20420;-77
2021/09/18 12:03:41;;;;;;;12.70;10.17;;;24.00;49.90;;;;;;4991828;28;20474;-74
2021/09/18 12:06:10;;;;;;;13.10;11.40;;;23.90;49.50;;;;;;4986477;28;20439;-76
2021/09/18 12:08:38;;;;;;;13.27;10.73;;;23.90;49.50;;;;;;4976610;28;20936;-77
2021/09/18 12:11:11;;;;;;;12.37;10.30;;;23.70;50.10;;;;;;4976400;28;20466;-77
2021/09/18 12:13:42;;;;;;;12.70;10.70;;;23.70;50.60;;;;;;4976449;28;20503;-76
2021/09/18 12:16:09;;;;;;;11.70;10.13;;;23.90;50.70;;;;;;4977881;28;20411;-76
2021/09/18 12:18:40;;;;;;;13.17;11.77;;;24.00;50.20;;;;;;4978236;28;20400;-75
2021/09/18 12:21:10;;;;;;;18.27;10.00;;;24.10;49.90;;;;;;4976073;28;20424;-77
2021/09/18 12:23:47;;;;;;;12.60;9.53;;;24.10;49.80;;;;;;4977126;28;20419;-77
2021/09/18 12:26:14;;;;;;;9.63;7.20;;;24.10;50.10;;;;;;4976799;28;20921;-77
2021/09/18 12:28:40;;;;;;;9.70;7.87;;;24.20;49.60;;;;;;4976745;28;20451;-77
2021/09/18 12:31:21;;;;;;;11.80;9.87;;;24.20;48.90;;;;;;4975055;28;20775;-76
2021/09/18 12:33:49;;;;;;;10.27;8.33;;;24.20;48.60;;;;;;4975208;28;20782;-76
2021/09/18 12:36:23;;;;;;;11.17;6.80;;;24.10;48.30;;;;;;4977155;28;20499;-76
2021/09/18 12:38:50;;;;;;;10.90;7.47;;;24.00;48.40;;;;;;4976737;28;20474;-78